地図

経路データ

SID SEASON NUMBER BASIN SUBBASIN NAME ISO_TIME NATURE LAT LON WMO_WIND WMO_PRES WMO_AGENCY TRACK_TYPE DIST2LAND LANDFALL IFLAG USA_AGENCY USA_ATCF_ID USA_LAT USA_LON USA_RECORD USA_STATUS USA_WIND USA_PRES USA_SSHS USA_R34_NE USA_R34_SE USA_R34_SW USA_R34_NW USA_R50_NE USA_R50_SE USA_R50_SW USA_R50_NW USA_R64_NE USA_R64_SE USA_R64_SW USA_R64_NW USA_POCI USA_ROCI USA_RMW USA_EYE TOKYO_LAT TOKYO_LON TOKYO_GRADE TOKYO_WIND TOKYO_PRES TOKYO_R50_DIR TOKYO_R50_LONG TOKYO_R50_SHORT TOKYO_R30_DIR TOKYO_R30_LONG TOKYO_R30_SHORT TOKYO_LAND CMA_LAT CMA_LON CMA_CAT CMA_WIND CMA_PRES HKO_LAT HKO_LON HKO_CAT HKO_WIND HKO_PRES NEWDELHI_LAT NEWDELHI_LON NEWDELHI_GRADE NEWDELHI_WIND NEWDELHI_PRES NEWDELHI_CI NEWDELHI_DP NEWDELHI_POCI REUNION_LAT REUNION_LON REUNION_TYPE REUNION_WIND REUNION_PRES REUNION_TNUM REUNION_CI REUNION_RMW REUNION_R34_NE REUNION_R34_SE REUNION_R34_SW REUNION_R34_NW REUNION_R50_NE REUNION_R50_SE REUNION_R50_SW REUNION_R50_NW REUNION_R64_NE REUNION_R64_SE REUNION_R64_SW REUNION_R64_NW BOM_LAT BOM_LON BOM_TYPE BOM_WIND BOM_PRES BOM_TNUM BOM_CI BOM_RMW BOM_R34_NE BOM_R34_SE BOM_R34_SW BOM_R34_NW BOM_R50_NE BOM_R50_SE BOM_R50_SW BOM_R50_NW BOM_R64_NE BOM_R64_SE BOM_R64_SW BOM_R64_NW BOM_ROCI BOM_POCI BOM_EYE BOM_POS_METHOD BOM_PRES_METHOD NADI_LAT NADI_LON NADI_CAT NADI_WIND NADI_PRES WELLINGTON_LAT WELLINGTON_LON WELLINGTON_WIND WELLINGTON_PRES DS824_LAT DS824_LON DS824_STAGE DS824_WIND DS824_PRES TD9636_LAT TD9636_LON TD9636_STAGE TD9636_WIND TD9636_PRES TD9635_LAT TD9635_LON TD9635_WIND TD9635_PRES TD9635_ROCI NEUMANN_LAT NEUMANN_LON NEUMANN_CLASS NEUMANN_WIND NEUMANN_PRES MLC_LAT MLC_LON MLC_CLASS MLC_WIND MLC_PRES USA_GUST BOM_GUST BOM_GUST_PER REUNION_GUST REUNION_GUST_PER USA_SEAHGT USA_SEARAD_NE USA_SEARAD_SE USA_SEARAD_SW USA_SEARAD_NW STORM_SPEED STORM_DIR
1918223N17130 1918 47 WP MM NOT_NAMED 1918-08-11 10:00:00 NR 16.8000 129.800 main 663 663 __________O___ -1 16.8000 129.800 4 1 0
1918223N17130 1918 47 WP MM NOT_NAMED 1918-08-11 12:00:00 NR 16.7783 129.777 main 663 654 __________P___ -1 16.7783 129.777 4 1 246
1918223N17130 1918 47 WP MM NOT_NAMED 1918-08-11 15:00:00 NR 16.7601 129.707 main 654 636 __________P___ -1 16.7601 129.707 4 2 270
1918223N17130 1918 47 WP MM NOT_NAMED 1918-08-11 18:00:00 NR 16.7791 129.547 main 636 614 __________P___ -1 16.7791 129.547 4 5 282
1918223N17130 1918 47 WP MM NOT_NAMED 1918-08-11 21:00:00 NR 16.8571 129.243 main 614 605 __________P___ -1 16.8571 129.243 4 7 286
1918223N17130 1918 47 WP MM NOT_NAMED 1918-08-11 22:00:00 NR 16.9000 129.100 main 605 576 __________O___ -1 16.9000 129.100 4 10 288
1918223N17130 1918 47 WP MM NOT_NAMED 1918-08-12 00:00:00 NR 17.0134 128.745 main 576 541 __________P___ -1 17.0134 128.745 4 12 289
1918223N17130 1918 47 WP MM NOT_NAMED 1918-08-12 03:00:00 NR 17.2398 128.074 main 541 506 __________P___ -1 17.2398 128.074 4 15 290
1918223N17130 1918 47 WP MM NOT_NAMED 1918-08-12 06:00:00 NR 17.5110 127.294 main 506 433 __________P___ -1 17.5110 127.294 4 16 290
1918223N17130 1918 47 WP MM NOT_NAMED 1918-08-12 09:00:00 NR 17.8025 126.472 main 433 405 __________P___ -1 17.8025 126.472 4 17 290
1918223N17130 1918 47 WP MM NOT_NAMED 1918-08-12 10:00:00 NR 17.9000 126.200 main 405 359 __________O___ -1 17.9000 126.200 4 16 292
1918223N17130 1918 47 WP MM NOT_NAMED 1918-08-12 12:00:00 NR 18.0957 125.696 main 359 274 __________P___ -1 18.0957 125.696 4 16 292
1918223N17130 1918 47 WP MM NOT_NAMED 1918-08-12 15:00:00 NR 18.3963 124.932 main 274 203 __________P___ -1 18.3963 124.932 4 16 292
1918223N17130 1918 47 WP MM NOT_NAMED 1918-08-12 18:00:00 NR 18.6829 124.175 main 203 128 __________P___ -1 18.6829 124.175 4 15 291
1918223N17130 1918 47 WP MM NOT_NAMED 1918-08-12 21:00:00 NR 18.9305 123.438 main 128 116 __________P___ -1 18.9305 123.438 4 15 289
1918223N17130 1918 47 WP MM NOT_NAMED 1918-08-12 22:00:00 NR 19.0000 123.200 main 116 88 __________O___ -1 19.0000 123.200 4 14 286
1918223N17130 1918 47 WP MM NOT_NAMED 1918-08-13 00:00:00 NR 19.1163 122.741 main 88 84 __________P___ -1 19.1163 122.741 4 13 283
1918223N17130 1918 47 WP MM NOT_NAMED 1918-08-13 03:00:00 NR 19.2474 122.077 main 89 89 __________P___ -1 19.2474 122.077 4 13 280
1918223N17130 1918 47 WP MM NOT_NAMED 1918-08-13 06:00:00 NR 19.3351 121.436 main 89 88 __________P___ -1 19.3351 121.436 4 12 277
1918223N17130 1918 47 WP MM NOT_NAMED 1918-08-13 09:00:00 NR 19.3883 120.808 main 89 89 __________P___ -1 19.3883 120.808 4 12 275
1918223N17130 1918 47 WP MM NOT_NAMED 1918-08-13 10:00:00 NR 19.4000 120.600 main 91 91 __________O___ -1 19.4000 120.600 4 12 273
1918223N17130 1918 47 WP MM NOT_NAMED 1918-08-13 12:00:00 NR 19.4176 120.154 main 109 115 __________P___ -1 19.4176 120.154 4 13 271
1918223N17130 1918 47 WP MM NOT_NAMED 1918-08-13 15:00:00 NR 19.4188 119.490 main 160 160 __________P___ -1 19.4188 119.490 4 12 269
1918223N17130 1918 47 WP MM NOT_NAMED 1918-08-13 18:00:00 NR 19.4061 118.856 main 210 219 __________P___ -1 19.4061 118.856 4 11 269
1918223N17130 1918 47 WP MM NOT_NAMED 1918-08-13 21:00:00 NR 19.3983 118.277 main 266 276 __________P___ -1 19.3983 118.277 4 11 270
1918223N17130 1918 47 WP MM NOT_NAMED 1918-08-13 22:00:00 NR 19.4000 118.100 main 285 285 __________O___ -1 19.4000 118.100 4 10 272
1918223N17130 1918 47 WP MM NOT_NAMED 1918-08-14 00:00:00 NR 19.4134 117.769 main 315 324 __________P___ -1 19.4134 117.769 4 9 274
1918223N17130 1918 47 WP MM NOT_NAMED 1918-08-14 03:00:00 NR 19.4465 117.329 main 364 364 __________P___ -1 19.4465 117.329 4 8 276
1918223N17130 1918 47 WP MM NOT_NAMED 1918-08-14 06:00:00 NR 19.4980 116.945 main 375 356 __________P___ -1 19.4980 116.945 4 7 280
1918223N17130 1918 47 WP MM NOT_NAMED 1918-08-14 09:00:00 NR 19.5706 116.605 main 356 354 __________P___ -1 19.5706 116.605 4 6 284
1918223N17130 1918 47 WP MM NOT_NAMED 1918-08-14 10:00:00 NR 19.6000 116.500 main 354 339 __________O___ -1 19.6000 116.500 4 6 287
1918223N17130 1918 47 WP MM NOT_NAMED 1918-08-14 12:00:00 NR 19.6659 116.283 main 339 322 __________P___ -1 19.6659 116.283 4 6 291
1918223N17130 1918 47 WP MM NOT_NAMED 1918-08-14 15:00:00 NR 19.7840 115.989 main 322 302 __________P___ -1 19.7840 115.989 4 6 295
1918223N17130 1918 47 WP MM NOT_NAMED 1918-08-14 18:00:00 NR 19.9167 115.724 main 302 275 __________P___ -1 19.9167 115.724 4 6 299
1918223N17130 1918 47 WP MM NOT_NAMED 1918-08-14 21:00:00 NR 20.0546 115.479 main 275 271 __________P___ -1 20.0546 115.479 4 5 301
1918223N17130 1918 47 WP MM NOT_NAMED 1918-08-14 22:00:00 NR 20.1000 115.400 main 271 252 __________O___ -1 20.1000 115.400 4 5 298
1918223N17130 1918 47 WP MM NOT_NAMED 1918-08-15 00:00:00 NR 20.1753 115.238 main 252 235 __________P___ -1 20.1753 115.238 4 5 297
1918223N17130 1918 47 WP MM NOT_NAMED 1918-08-15 03:00:00 NR 20.2882 115.009 main 235 218 __________P___ -1 20.2882 115.009 4 5 299
1918223N17130 1918 47 WP MM NOT_NAMED 1918-08-15 06:00:00 NR 20.4094 114.789 main 218 203 __________P___ -1 20.4094 114.789 4 5 302
1918223N17130 1918 47 WP MM NOT_NAMED 1918-08-15 09:00:00 NR 20.5482 114.572 main 203 191 __________P___ -1 20.5482 114.572 4 5 305
1918223N17130 1918 47 WP MM NOT_NAMED 1918-08-15 10:00:00 NR 20.6000 114.500 main 191 179 __________O___ -1 20.6000 114.500 4 5 309
1918223N17130 1918 47 WP MM NOT_NAMED 1918-08-15 12:00:00 NR 20.7131 114.354 main 179 156 __________P___ -1 20.7131 114.354 4 6 311
1918223N17130 1918 47 WP MM NOT_NAMED 1918-08-15 15:00:00 NR 20.9028 114.131 main 157 127 __________P___ -1 20.9028 114.131 4 6 313
1918223N17130 1918 47 WP MM NOT_NAMED 1918-08-15 18:00:00 NR 21.1099 113.905 main 127 98 __________P___ -1 21.1099 113.905 4 6 315
1918223N17130 1918 47 WP MM NOT_NAMED 1918-08-15 21:00:00 NR 21.3268 113.676 main 98 83 __________P___ -1 21.3268 113.676 4 6 316
1918223N17130 1918 47 WP MM NOT_NAMED 1918-08-15 22:00:00 NR 21.4000 113.600 main 83 __________O___ -1 21.4000 113.600 4 6 319

デジタル台風データ・検索

IBTrACS Databaseについて

本データベースは、米国NOAAが公開する1842年以降の世界の熱帯低気圧のベストトラックデータアーカイブInternational Best Track Archive for Climate Stewardship (IBTrACS)を、ウェブで閲覧しやすい形式に変換したものです。

最終更新日:2021-11-26